createdAt,value
2018-07-28T00:01:12.258Z,97208.64
2018-07-28T00:03:42.929Z,97206.56
2018-07-28T00:06:13.840Z,97191.59
2018-07-28T00:08:44.668Z,97210.64
2018-07-28T00:11:15.091Z,97202.52
2018-07-28T00:13:45.563Z,97205.41
2018-07-28T00:16:15.931Z,97205.17
2018-07-28T00:18:46.568Z,97205.95
2018-07-28T00:21:16.943Z,97203.81
2018-07-28T00:23:47.592Z,97204.13
2018-07-28T00:26:44.154Z,97206.66
2018-07-28T00:29:14.496Z,97205.56
2018-07-28T00:31:44.835Z,97203.22
2018-07-28T00:34:18.097Z,97196.03
2018-07-28T00:36:48.815Z,97203.17
2018-07-28T00:39:19.987Z,97201.37
2018-07-28T00:41:50.271Z,97202.52
2018-07-28T00:44:20.542Z,97199.72
2018-07-28T00:50:32.361Z,97199.43
2018-07-28T00:53:09.266Z,97195.83
2018-07-28T00:56:49.413Z,97187.31
2018-07-28T00:59:19.745Z,97192.79
2018-07-28T01:01:50.885Z,97187.39
2018-07-28T01:04:28.581Z,97192.15
2018-07-28T01:06:58.757Z,97194.52
2018-07-28T01:09:29.143Z,97185.67
2018-07-28T01:12:01.929Z,97182.31
2018-07-28T01:14:32.361Z,97186.65
2018-07-28T01:17:03.777Z,97178.61
2018-07-28T01:19:34.064Z,97187.47
2018-07-28T01:22:04.309Z,97188.88
2018-07-28T01:24:34.720Z,97181.44
2018-07-28T01:27:05.624Z,97183.77
2018-07-28T01:29:35.827Z,97184.09
2018-07-28T01:32:06.913Z,97173.59
2018-07-28T01:34:37.224Z,97173.08
2018-07-28T01:37:07.464Z,97176.69
2018-07-28T01:39:38.660Z,97174.81
2018-07-28T01:42:09.151Z,97171.50
2018-07-28T01:44:39.873Z,97176.27
2018-07-28T01:47:11.117Z,97167.55
2018-07-28T01:49:41.632Z,97171.83
2018-07-28T01:52:11.978Z,97176.00
2018-07-28T01:54:42.794Z,97178.60
2018-07-28T01:57:13.207Z,97175.19
2018-07-28T01:59:43.517Z,97168.63
2018-07-28T02:02:13.836Z,97165.77
2018-07-28T02:04:44.084Z,97166.41
2018-07-28T02:07:14.404Z,97170.94
2018-07-28T02:09:44.738Z,97168.97
2018-07-28T02:12:16.143Z,97176.28
2018-07-28T02:14:46.521Z,97171.72
2018-07-28T02:17:23.440Z,97173.00
2018-07-28T02:19:53.854Z,97173.31
2018-07-28T02:22:24.118Z,97173.37
2018-07-28T02:24:54.355Z,97179.85
2018-07-28T02:27:24.713Z,97174.39
2018-07-28T02:29:55.012Z,97177.61
2018-07-28T02:32:25.320Z,97185.03
2018-07-28T02:34:55.630Z,97180.09
2018-07-28T02:37:25.828Z,97173.37
2018-07-28T02:39:56.544Z,97166.48
2018-07-28T02:42:26.848Z,97166.08
2018-07-28T02:44:57.164Z,97165.45
2018-07-28T02:47:27.625Z,97161.58
2018-07-28T02:49:58.080Z,97150.28
2018-07-28T02:52:29.000Z,97148.78
2018-07-28T02:55:00.043Z,97145.09
2018-07-28T02:57:32.175Z,97145.02
2018-07-28T03:00:03.529Z,97144.75
2018-07-28T03:02:33.858Z,97154.66
2018-07-28T03:05:04.240Z,97154.67
2018-07-28T03:07:34.892Z,97157.31
2018-07-28T03:10:09.288Z,97156.30
2018-07-28T03:12:40.560Z,97155.95
2018-07-28T03:20:11.048Z,97145.78
2018-07-28T03:22:44.403Z,97150.86
